Harvey, ND

5:55 PM CST on February 13, 2016 (GMT -0600)
Harvey | | Change Station
CLOSE
Current Station
Airport
Location: Harvey,
Elevation: 1608 ft
Nearby Weather Stations
Active Advisory: Winter Weather Advisory

Elev 1608 ft 47.79 °N, 99.93 °W | Updated 20 minutes ago

Overcast
Overcast
10 °F
Feels Like -8 °F
N
18
Wind Variable Wind from SSE
Gusts 25 mph

Today
High -- | Low -- °F
--% Chance of Precip.
Yesterday
High -- | Low -- °F
Precip. -- in
Pressure 29.99 in
Visibility 2.5 miles
Clouds Overcast 1200 ft
Windchill -8 °F
Dew Point 7 °F
Humidity 85%
Rainfall 17.49 in
Snow Depth Not available.
7:49 AM 5:58 PM
Waxing Crescent, 35% visible
METAR K5H4 132335Z AUTO 15016G22KT 2 1/2SM OVC012 M12/M14 A2999 RMK AO2 P0033 PWINO PNO
Pressure 29.99 in
Visibility 2.5 miles
Clouds Overcast 1200 ft
Windchill -8 °F
Dew Point 7 °F
Humidity 85%
Rainfall 17.49 in
Snow Depth Not available.
7:49 AM 5:58 PM
Waxing Crescent, 35% visible
METAR K5H4 132335Z AUTO 15016G22KT 2 1/2SM OVC012 M12/M14 A2999 RMK AO2 P0033 PWINO PNO

10-Day Weather Forecast

Almanac

Astronomy

Feb. 13, 2016 Rise Set
Actual Time
Civil Twilight
Nautical Twilight
Astronomical Twilight
Moon
Length of Visible Light
Length of Day
Tomorrow will be .
, % of the Moon is Illuminated

Today's Extremes

State Highs State Lows

Community

WunderPhotos

Upload Photos

1,892,705 photos uploaded!

WunderBlog® & News

Nearby

Air Quality

  Air Quality AQ Index Pollutant
Not available.

Snow Depth

Station Depth Elevation

Earthquake Activity

City Distance Mag. Time & Date
Minimum magnitude displayed is 2.5.

Coastal Water Temperatures

Place Temperature

Stations

Nearby Weather Stations

Station Location Temp. Windchill Dew Point Humidity Wind Precip. Elev Updated Type
                   

Watches & Warnings

Winter Weather Advisory
Issued: 3:14 PM CST Feb. 13, 2016 – National Weather Service

... Winter Weather Advisory remains in effect until 6 am CST
Sunday...

* expect snow to continue developing this afternoon into early
this evening... and then diminish early Sunday morning.

* The heaviest snowfall rates will occur between 6 PM this
evening and midnight tonight.

* Total snow accumulations of 2 to 5 inches... with localized
amounts up to 6 inches are expected.

* Winds gusting as high as 35 mph will cause patchy of blowing
and drifting snow. Some reductions to visibility are expected.

Precautionary/preparedness actions...

A Winter Weather Advisory means that periods of snow... sleet or
freezing rain will cause travel difficulties. Be prepared for
slippery roads and limited visibilities... and use caution while
driving. The latest Road conditions for the state you are calling
from can be obtained by calling 5 1 1.